Time;durP1;ratioP1;P1;durP2;ratioP2;P2;SDS_P1;SDS_P2;PMS_P1;PMS_P2;Temp;Humidity;BMP_temperature;BMP_pressure;BME280_temperature;BME280_humidity;BME280_pressure;Samples;Min_cycle;Max_cycle;Signal;HPM_P1;HPM_P2
2022/03/08 00:00:17;;;;;;;9.63;2.33;;;11.50;99.90;;;;;;5067124;28;20225;-65
2022/03/08 00:02:43;;;;;;;11.20;2.43;;;11.40;99.90;;;;;;5067205;28;20187;-64
2022/03/08 00:05:10;;;;;;;9.73;2.13;;;11.40;99.90;;;;;;5066613;28;20190;-63
2022/03/08 00:07:36;;;;;;;11.40;2.60;;;11.30;99.90;;;;;;5064872;28;20426;-65
2022/03/08 00:10:07;;;;;;;9.73;3.13;;;11.30;99.90;;;;;;5066788;28;20284;-64
2022/03/08 00:12:34;;;;;;;16.17;2.77;;;11.30;99.90;;;;;;5067443;28;20210;-64
2022/03/08 00:15:01;;;;;;;18.93;3.37;;;11.20;99.90;;;;;;5067625;28;20638;-64
2022/03/08 00:17:27;;;;;;;17.77;3.23;;;11.30;99.90;;;;;;5066783;28;20182;-64
2022/03/08 00:19:53;;;;;;;17.23;2.50;;;11.30;99.90;;;;;;5065894;28;20505;-64
2022/03/08 00:22:20;;;;;;;14.60;3.20;;;11.20;99.90;;;;;;5067373;28;20607;-64
2022/03/08 00:24:46;;;;;;;8.47;2.57;;;11.20;99.90;;;;;;5067379;28;20240;-65
2022/03/08 00:27:12;;;;;;;7.13;2.40;;;11.20;99.90;;;;;;5067120;28;20195;-66
2022/03/08 00:29:39;;;;;;;15.27;3.20;;;11.20;99.90;;;;;;5064989;28;20183;-64
2022/03/08 00:32:06;;;;;;;10.47;2.57;;;11.10;99.90;;;;;;5067458;28;20225;-65
2022/03/08 00:34:32;;;;;;;10.63;2.50;;;11.10;99.90;;;;;;5063586;28;20198;-64
2022/03/08 00:36:58;;;;;;;9.47;2.23;;;11.10;99.90;;;;;;5066194;28;20204;-64
2022/03/08 00:39:25;;;;;;;9.70;2.23;;;11.00;99.90;;;;;;5066111;28;20214;-66
2022/03/08 00:41:51;;;;;;;11.97;2.33;;;11.00;99.90;;;;;;5066812;28;20198;-65
2022/03/08 00:44:17;;;;;;;7.67;2.27;;;10.90;99.90;;;;;;5077398;28;20197;-64
2022/03/08 00:46:43;;;;;;;12.13;2.37;;;10.80;99.90;;;;;;5064441;28;20202;-64
2022/03/08 00:49:10;;;;;;;9.27;2.40;;;10.70;99.90;;;;;;5065968;28;20623;-65
2022/03/08 00:51:36;;;;;;;8.87;2.20;;;10.70;99.90;;;;;;5064164;28;20505;-63
2022/03/08 00:54:03;;;;;;;6.13;2.23;;;10.70;99.90;;;;;;5065699;28;20186;-64
2022/03/08 00:56:30;;;;;;;10.97;3.17;;;10.60;99.90;;;;;;5062475;28;20643;-64
2022/03/08 00:58:56;;;;;;;8.43;2.37;;;10.60;99.90;;;;;;5065185;28;20286;-65
2022/03/08 01:01:22;;;;;;;6.87;3.07;;;10.60;99.90;;;;;;5083410;28;20175;-64
2022/03/08 01:03:48;;;;;;;10.53;2.43;;;10.60;99.90;;;;;;5066947;28;20186;-64
2022/03/08 01:06:15;;;;;;;6.53;2.23;;;10.60;99.90;;;;;;5065814;28;20202;-64
2022/03/08 01:08:41;;;;;;;6.90;2.50;;;10.60;99.90;;;;;;5037125;28;20187;-65
2022/03/08 01:11:08;;;;;;;12.57;2.80;;;10.50;99.90;;;;;;5065971;28;20215;-66
2022/03/08 01:13:34;;;;;;;14.07;2.83;;;10.50;99.90;;;;;;5069342;28;20209;-64
2022/03/08 01:16:00;;;;;;;10.10;3.00;;;10.50;99.90;;;;;;5086853;28;20178;-64
2022/03/08 01:18:26;;;;;;;11.83;2.70;;;10.40;99.90;;;;;;5062528;28;20241;-64
2022/03/08 01:20:55;;;;;;;10.53;2.80;;;10.40;99.90;;;;;;5067775;28;20255;-63
2022/03/08 01:23:21;;;;;;;10.30;2.53;;;10.40;99.90;;;;;;5067161;28;20266;-64
2022/03/08 01:25:47;;;;;;;10.03;2.50;;;10.40;99.90;;;;;;5051550;28;20208;-64
2022/03/08 01:28:14;;;;;;;8.00;2.50;;;10.30;99.90;;;;;;5061139;28;20194;-65
2022/03/08 01:30:40;;;;;;;11.67;2.97;;;10.30;99.90;;;;;;5070760;28;20207;-65
2022/03/08 01:33:06;;;;;;;8.40;2.50;;;10.20;99.90;;;;;;5072029;28;20190;-64
2022/03/08 01:35:34;;;;;;;9.70;2.63;;;10.20;99.90;;;;;;5069874;28;20187;-64
2022/03/08 01:38:00;;;;;;;12.30;3.13;;;10.10;99.90;;;;;;5068470;28;20187;-65
2022/03/08 01:40:26;;;;;;;10.57;3.17;;;10.20;99.90;;;;;;5072005;28;20206;-64
2022/03/08 01:42:54;;;;;;;11.03;3.23;;;10.20;99.90;;;;;;5065905;28;20640;-64
2022/03/08 01:45:24;;;;;;;10.17;3.20;;;10.20;99.90;;;;;;5099005;28;20701;-65
2022/03/08 01:47:52;;;;;;;13.23;3.40;;;10.20;99.90;;;;;;5064419;28;20856;-64
2022/03/08 01:50:19;;;;;;;9.70;3.07;;;10.30;99.90;;;;;;5068420;28;20206;-65
2022/03/08 01:52:45;;;;;;;11.83;2.90;;;10.30;99.90;;;;;;5069893;28;20489;-65
2022/03/08 01:55:14;;;;;;;10.67;4.23;;;10.20;99.90;;;;;;5069465;28;20178;-65
2022/03/08 01:57:43;;;;;;;9.83;3.23;;;10.20;99.90;;;;;;5069551;28;20705;-65
2022/03/08 02:00:13;;;;;;;10.10;3.30;;;10.20;99.90;;;;;;5052648;28;20203;-64
2022/03/08 02:02:42;;;;;;;9.80;4.00;;;10.20;99.90;;;;;;5076469;28;20187;-64
2022/03/08 02:05:09;;;;;;;15.90;3.50;;;10.30;99.90;;;;;;5066359;28;20187;-65
2022/03/08 02:07:36;;;;;;;11.50;3.70;;;10.30;99.90;;;;;;5068260;28;20281;-64
2022/03/08 02:10:05;;;;;;;11.03;3.57;;;10.20;99.90;;;;;;5056525;28;20214;-64
2022/03/08 02:12:31;;;;;;;9.80;3.97;;;10.10;99.90;;;;;;5068947;28;20193;-64
2022/03/08 02:14:58;;;;;;;8.50;3.40;;;10.20;99.90;;;;;;5090375;28;20639;-64
2022/03/08 02:17:24;;;;;;;12.63;3.30;;;10.20;99.90;;;;;;5069542;28;20174;-64
2022/03/08 02:19:56;;;;;;;12.13;3.50;;;10.20;99.90;;;;;;5069116;28;20240;-64
2022/03/08 02:22:23;;;;;;;10.93;3.50;;;10.10;99.90;;;;;;5068628;28;20183;-64
2022/03/08 02:24:50;;;;;;;12.97;4.17;;;10.10;99.90;;;;;;5066904;28;20198;-65
2022/03/08 02:27:16;;;;;;;12.07;3.33;;;10.10;99.90;;;;;;5067649;28;20665;-64
2022/03/08 02:29:42;;;;;;;10.83;3.60;;;10.10;99.90;;;;;;5066093;28;20190;-64
2022/03/08 02:32:09;;;;;;;10.80;3.57;;;10.10;99.90;;;;;;5070783;28;20186;-64
2022/03/08 02:34:35;;;;;;;8.67;3.60;;;10.10;99.90;;;;;;5085019;28;20201;-65
2022/03/08 02:37:09;;;;;;;6.07;3.27;;;10.00;99.90;;;;;;5070154;28;20210;-64
2022/03/08 02:39:36;;;;;;;11.47;3.83;;;10.00;99.90;;;;;;5069694;28;20195;-64
2022/03/08 02:42:03;;;;;;;14.70;4.00;;;10.00;99.90;;;;;;5069093;28;20202;-64
2022/03/08 02:44:30;;;;;;;8.43;4.30;;;10.00;99.90;;;;;;5076672;28;20225;-66
2022/03/08 02:46:59;;;;;;;8.40;4.43;;;9.90;99.90;;;;;;5090750;28;20293;-64
2022/03/08 02:49:26;;;;;;;11.03;4.60;;;9.90;99.90;;;;;;5072523;28;20187;-66
2022/03/08 02:51:53;;;;;;;10.43;4.00;;;9.90;99.90;;;;;;5069622;28;20214;-64
2022/03/08 02:54:19;;;;;;;10.57;4.60;;;9.90;99.90;;;;;;5070348;28;20706;-64
2022/03/08 02:56:45;;;;;;;9.63;4.87;;;9.90;99.90;;;;;;5069328;28;20198;-64
2022/03/08 02:59:19;;;;;;;16.40;5.13;;;9.90;99.90;;;;;;5062675;28;20190;-63
2022/03/08 03:01:45;;;;;;;11.97;4.60;;;9.80;99.90;;;;;;5083233;28;20269;-64
2022/03/08 03:04:11;;;;;;;12.33;4.50;;;9.90;99.90;;;;;;5067851;28;20962;-64
2022/03/08 03:06:39;;;;;;;15.47;5.17;;;9.90;99.90;;;;;;5068871;28;20175;-65
2022/03/08 03:09:06;;;;;;;15.33;5.10;;;9.90;99.90;;;;;;5073651;28;20198;-65
2022/03/08 03:11:34;;;;;;;13.83;4.73;;;9.90;99.90;;;;;;5068779;28;20210;-64
2022/03/08 03:14:00;;;;;;;12.43;5.10;;;9.90;99.90;;;;;;5072842;28;20196;-63
2022/03/08 03:16:27;;;;;;;11.10;5.10;;;9.80;99.90;;;;;;5079196;28;20251;-65
2022/03/08 03:18:53;;;;;;;12.00;4.27;;;9.80;99.90;;;;;;5063571;28;20894;-65
2022/03/08 03:21:20;;;;;;;14.90;5.23;;;9.80;99.90;;;;;;5065562;28;20962;-64
2022/03/08 03:23:46;;;;;;;14.40;4.97;;;9.70;99.90;;;;;;5070095;28;20185;-64
2022/03/08 03:26:12;;;;;;;12.10;4.93;;;9.70;99.90;;;;;;5067174;28;20202;-64
2022/03/08 03:28:38;;;;;;;13.87;5.13;;;9.70;99.90;;;;;;5069330;28;20190;-66
2022/03/08 03:31:05;;;;;;;12.83;4.80;;;9.60;99.90;;;;;;5071000;28;20237;-64
2022/03/08 03:33:31;;;;;;;15.47;5.50;;;9.50;99.90;;;;;;5067627;28;20194;-64
2022/03/08 03:35:57;;;;;;;11.93;5.10;;;9.50;99.90;;;;;;5066629;28;20203;-65
2022/03/08 03:38:23;;;;;;;18.47;5.03;;;9.50;99.90;;;;;;5067897;28;20248;-64
2022/03/08 03:40:50;;;;;;;15.80;4.90;;;9.60;99.90;;;;;;5068940;28;20676;-64
2022/03/08 03:43:16;;;;;;;14.33;4.93;;;9.60;99.90;;;;;;5066589;28;20210;-65
2022/03/08 03:45:42;;;;;;;10.07;5.00;;;9.70;99.90;;;;;;5077042;28;20194;-65
2022/03/08 03:48:08;;;;;;;11.50;4.63;;;9.60;99.90;;;;;;5069327;28;20256;-65
2022/03/08 03:50:34;;;;;;;11.13;4.80;;;9.70;99.90;;;;;;5066451;28;20230;-64
2022/03/08 03:53:01;;;;;;;11.93;4.50;;;9.60;99.90;;;;;;5055711;28;20184;-64
2022/03/08 03:55:27;;;;;;;14.17;4.47;;;9.60;99.90;;;;;;5064973;28;20194;-63
2022/03/08 03:57:54;;;;;;;10.77;4.43;;;9.50;99.90;;;;;;5068582;28;20522;-65
2022/03/08 04:00:20;;;;;;;6.57;4.00;;;9.50;99.90;;;;;;5069446;28;20244;-65
2022/03/08 04:02:46;;;;;;;9.53;3.90;;;9.50;99.90;;;;;;5067009;28;20191;-65
2022/03/08 04:05:13;;;;;;;8.10;3.67;;;9.50;99.90;;;;;;5066090;28;20294;-64
2022/03/08 04:07:40;;;;;;;8.50;3.70;;;9.40;99.90;;;;;;5067786;28;20194;-64
2022/03/08 04:10:10;;;;;;;7.90;3.70;;;9.30;99.90;;;;;;5054382;28;20210;-65
2022/03/08 04:12:37;;;;;;;8.10;3.97;;;9.30;99.90;;;;;;5065783;28;20199;-64
2022/03/08 04:15:04;;;;;;;16.93;4.47;;;9.30;99.90;;;;;;5052231;28;20179;-64
2022/03/08 04:17:30;;;;;;;9.33;4.30;;;9.30;99.90;;;;;;5065016;28;20208;-64
2022/03/08 04:19:56;;;;;;;11.97;4.33;;;9.30;99.90;;;;;;5065636;28;20296;-64
2022/03/08 04:22:23;;;;;;;9.37;4.33;;;9.40;99.90;;;;;;5066512;28;20185;-66
2022/03/08 04:24:52;;;;;;;9.43;4.60;;;9.40;99.90;;;;;;5067661;28;20206;-64
2022/03/08 04:27:18;;;;;;;11.83;4.00;;;9.40;99.90;;;;;;5067374;28;20229;-66
2022/03/08 04:29:44;;;;;;;6.70;3.73;;;9.30;99.90;;;;;;5069225;28;20193;-63
2022/03/08 04:32:11;;;;;;;10.83;4.40;;;9.30;99.90;;;;;;5067505;28;20253;-65
2022/03/08 04:34:37;;;;;;;15.37;4.50;;;9.30;99.90;;;;;;5065449;28;20199;-64
2022/03/08 04:37:04;;;;;;;14.23;4.60;;;9.40;99.90;;;;;;5048782;28;20705;-62
2022/03/08 04:39:30;;;;;;;8.50;4.40;;;9.50;99.90;;;;;;5068293;28;20635;-63
2022/03/08 04:41:56;;;;;;;13.33;4.40;;;9.60;99.90;;;;;;5066349;28;20191;-64
2022/03/08 04:44:23;;;;;;;13.57;4.70;;;9.70;99.90;;;;;;5071926;28;20276;-64
2022/03/08 04:46:49;;;;;;;11.97;4.50;;;9.80;99.90;;;;;;5058388;28;20214;-64
2022/03/08 04:49:16;;;;;;;7.00;4.20;;;9.90;99.90;;;;;;5067036;28;20190;-64
2022/03/08 04:51:42;;;;;;;10.23;4.43;;;9.80;99.90;;;;;;5050112;28;20210;-62
2022/03/08 04:54:08;;;;;;;14.47;4.60;;;9.90;99.90;;;;;;5070482;28;20186;-64
2022/03/08 04:56:34;;;;;;;8.97;4.23;;;9.90;99.90;;;;;;5071103;28;20240;-63
2022/03/08 04:59:01;;;;;;;8.37;4.37;;;9.80;99.90;;;;;;5072331;28;20536;-63
2022/03/08 05:01:27;;;;;;;12.33;4.27;;;9.70;99.90;;;;;;5070703;28;20690;-64
2022/03/08 05:03:53;;;;;;;12.67;4.27;;;9.70;99.90;;;;;;5071135;28;20666;-63
2022/03/08 05:06:19;;;;;;;9.23;4.67;;;9.70;99.90;;;;;;5071948;28;20195;-64
2022/03/08 05:08:46;;;;;;;8.80;4.40;;;9.70;99.90;;;;;;5071053;28;20187;-64
2022/03/08 05:11:13;;;;;;;8.37;3.80;;;9.70;99.90;;;;;;5070055;28;20659;-63
2022/03/08 05:13:39;;;;;;;8.03;4.40;;;9.70;99.90;;;;;;5070409;28;20365;-61
2022/03/08 05:16:06;;;;;;;12.67;4.67;;;9.70;99.90;;;;;;5071821;28;20187;-62
2022/03/08 05:18:32;;;;;;;10.77;4.43;;;9.70;99.90;;;;;;5086877;28;20278;-61
2022/03/08 05:21:02;;;;;;;16.00;4.50;;;9.80;99.90;;;;;;5070859;28;20187;-61
2022/03/08 05:23:28;;;;;;;10.13;4.70;;;9.80;99.90;;;;;;5069697;28;20251;-61
2022/03/08 05:25:54;;;;;;;11.47;4.67;;;9.90;99.90;;;;;;5071248;28;20977;-62
2022/03/08 05:28:21;;;;;;;10.67;4.73;;;10.00;99.90;;;;;;5071500;28;20232;-62
2022/03/08 05:30:47;;;;;;;12.30;4.30;;;10.10;99.90;;;;;;5075690;28;20725;-62
2022/03/08 05:33:13;;;;;;;11.03;4.27;;;10.10;99.90;;;;;;5069360;28;20189;-62
2022/03/08 05:35:40;;;;;;;17.00;4.67;;;10.20;99.90;;;;;;5069665;28;20212;-62
2022/03/08 05:38:06;;;;;;;15.73;4.57;;;10.20;99.90;;;;;;5069981;28;20187;-64
2022/03/08 05:40:33;;;;;;;10.93;4.43;;;10.30;99.90;;;;;;5069932;28;20252;-63
2022/03/08 05:43:01;;;;;;;15.40;4.50;;;10.30;99.90;;;;;;5068940;28;20286;-63
2022/03/08 05:45:29;;;;;;;9.13;4.43;;;10.30;99.90;;;;;;5052383;28;20214;-63
2022/03/08 05:47:55;;;;;;;8.50;4.30;;;10.30;99.90;;;;;;5071207;28;20198;-64
2022/03/08 05:50:22;;;;;;;5.97;4.67;;;10.30;99.90;;;;;;5052948;28;20689;-62
2022/03/08 05:52:48;;;;;;;11.77;4.77;;;10.40;99.90;;;;;;5070792;28;20197;-62
2022/03/08 05:55:14;;;;;;;9.90;4.40;;;10.40;99.90;;;;;;5070920;28;20505;-64
2022/03/08 05:57:41;;;;;;;10.57;4.23;;;10.50;99.90;;;;;;5069103;28;20576;-64
2022/03/08 06:00:09;;;;;;;12.60;4.80;;;10.50;99.90;;;;;;5068550;28;20205;-64
2022/03/08 06:02:36;;;;;;;7.47;3.83;;;10.60;99.90;;;;;;5069209;28;20339;-65
2022/03/08 06:05:03;;;;;;;6.93;3.97;;;10.70;99.90;;;;;;5069461;28;20183;-64
2022/03/08 06:07:29;;;;;;;12.27;4.63;;;10.80;99.90;;;;;;5071175;28;20182;-64
2022/03/08 06:09:55;;;;;;;14.97;4.43;;;10.80;99.90;;;;;;5071008;28;20182;-64
2022/03/08 06:12:21;;;;;;;12.40;4.07;;;10.90;99.90;;;;;;5070167;28;20214;-65
2022/03/08 06:14:48;;;;;;;8.23;3.90;;;10.90;99.90;;;;;;5070430;28;20643;-64
2022/03/08 06:17:14;;;;;;;11.23;3.80;;;11.00;99.90;;;;;;5069677;28;20183;-64
2022/03/08 06:19:40;;;;;;;6.83;3.57;;;11.00;99.90;;;;;;5052347;28;20635;-65
2022/03/08 06:22:06;;;;;;;11.90;4.43;;;11.10;99.90;;;;;;5057819;28;20236;-64
2022/03/08 06:24:33;;;;;;;8.77;3.90;;;11.10;99.90;;;;;;5069414;28;20221;-64
2022/03/08 06:26:59;;;;;;;9.37;4.03;;;11.20;99.90;;;;;;5070352;28;20191;-64
2022/03/08 06:29:25;;;;;;;13.30;4.57;;;11.20;99.90;;;;;;5069342;28;20285;-64
2022/03/08 06:31:52;;;;;;;11.10;3.70;;;11.20;99.90;;;;;;5070974;28;20215;-63
2022/03/08 06:34:18;;;;;;;8.27;3.93;;;11.30;99.90;;;;;;5069901;28;20191;-64
2022/03/08 06:36:44;;;;;;;8.17;3.73;;;11.30;99.90;;;;;;5057869;28;20187;-65
2022/03/08 06:39:12;;;;;;;9.57;3.53;;;11.30;99.90;;;;;;5070308;28;20186;-65
2022/03/08 06:41:38;;;;;;;10.03;3.53;;;11.30;99.90;;;;;;5070076;28;20199;-64
2022/03/08 06:44:05;;;;;;;6.93;3.93;;;11.40;99.90;;;;;;5069254;28;20186;-64
2022/03/08 06:46:31;;;;;;;13.00;4.50;;;11.40;99.90;;;;;;5062071;28;20671;-63
2022/03/08 06:48:57;;;;;;;7.13;3.87;;;11.50;99.90;;;;;;5064513;28;20202;-64
2022/03/08 06:51:24;;;;;;;12.43;3.67;;;11.50;99.90;;;;;;5063185;28;20214;-64
2022/03/08 06:53:50;;;;;;;11.50;4.03;;;11.60;99.90;;;;;;5068486;28;20179;-62
2022/03/08 06:56:17;;;;;;;14.23;3.73;;;11.70;99.90;;;;;;5064481;28;20216;-61
2022/03/08 06:58:44;;;;;;;15.57;3.83;;;11.80;99.90;;;;;;5057936;28;20190;-64
2022/03/08 07:01:10;;;;;;;12.30;4.10;;;11.80;99.90;;;;;;5069582;28;20209;-63
2022/03/08 07:03:36;;;;;;;9.93;4.10;;;11.80;99.90;;;;;;5068862;28;20195;-64
2022/03/08 07:06:05;;;;;;;7.03;3.70;;;11.70;99.90;;;;;;5067339;28;20229;-64
2022/03/08 07:08:31;;;;;;;7.67;3.40;;;11.70;99.90;;;;;;5068637;28;20237;-63
2022/03/08 07:10:58;;;;;;;9.03;3.40;;;11.80;99.90;;;;;;5068182;28;20238;-62
2022/03/08 07:13:24;;;;;;;9.03;3.60;;;11.80;99.90;;;;;;5068307;28;20187;-65
2022/03/08 07:15:50;;;;;;;9.50;3.47;;;12.00;99.90;;;;;;5049080;28;20191;-64
2022/03/08 07:18:17;;;;;;;8.63;3.50;;;12.10;99.90;;;;;;5068795;28;20195;-63
2022/03/08 07:20:43;;;;;;;7.10;3.20;;;12.20;99.90;;;;;;5066342;28;20195;-63
2022/03/08 07:23:09;;;;;;;10.10;3.20;;;12.30;99.90;;;;;;5067453;28;20214;-64
2022/03/08 07:25:36;;;;;;;7.50;3.00;;;12.30;99.90;;;;;;5067168;28;20203;-64
2022/03/08 07:28:03;;;;;;;7.97;3.57;;;12.30;99.90;;;;;;5065070;28;20639;-64
2022/03/08 07:30:30;;;;;;;6.47;2.77;;;12.40;99.90;;;;;;5051603;28;20198;-64
2022/03/08 07:32:57;;;;;;;7.67;3.03;;;12.40;99.90;;;;;;5066800;28;20183;-65
2022/03/08 07:35:24;;;;;;;8.40;3.23;;;12.60;99.90;;;;;;5068683;28;20195;-64
2022/03/08 07:37:50;;;;;;;9.60;3.00;;;12.70;99.90;;;;;;5069284;28;20187;-62
2022/03/08 07:40:17;;;;;;;9.17;3.40;;;12.80;99.90;;;;;;5069846;28;20261;-63
2022/03/08 07:42:44;;;;;;;13.27;3.37;;;12.80;99.90;;;;;;5068210;28;20194;-63
2022/03/08 07:45:11;;;;;;;7.20;3.13;;;12.90;99.90;;;;;;5068137;28;21046;-61
2022/03/08 07:47:37;;;;;;;6.60;3.17;;;12.90;99.90;;;;;;5069031;28;20651;-62
2022/03/08 07:50:06;;;;;;;10.40;3.60;;;13.00;99.90;;;;;;5066624;28;20187;-63
2022/03/08 07:52:32;;;;;;;10.37;3.00;;;13.00;99.90;;;;;;5054002;28;20465;-63
2022/03/08 07:54:58;;;;;;;7.63;3.50;;;13.00;99.90;;;;;;5066222;28;20680;-64
2022/03/08 07:57:25;;;;;;;10.70;2.87;;;13.00;99.90;;;;;;5067066;28;20603;-63
2022/03/08 07:59:51;;;;;;;7.73;3.47;;;13.00;99.90;;;;;;5067266;28;20907;-64
2022/03/08 08:02:17;;;;;;;7.13;3.03;;;13.00;99.90;;;;;;5068475;28;20194;-64
2022/03/08 08:04:44;;;;;;;9.57;3.07;;;13.00;99.90;;;;;;5066081;28;20327;-63
2022/03/08 08:07:10;;;;;;;8.50;3.00;;;12.90;99.90;;;;;;5065568;28;20244;-63
2022/03/08 08:09:37;;;;;;;8.40;2.87;;;12.90;99.90;;;;;;5064602;28;20183;-63
2022/03/08 08:12:05;;;;;;;4.40;2.90;;;12.90;99.90;;;;;;5066226;28;20234;-63
2022/03/08 08:14:32;;;;;;;10.10;2.70;;;12.90;99.90;;;;;;5064291;28;20191;-62
2022/03/08 08:16:58;;;;;;;16.13;3.40;;;13.00;99.90;;;;;;5067865;28;20179;-62
2022/03/08 08:19:24;;;;;;;8.87;3.20;;;13.10;99.90;;;;;;5066898;28;20740;-62
2022/03/08 08:21:50;;;;;;;7.63;2.90;;;13.20;99.90;;;;;;5067097;28;20647;-63
2022/03/08 08:24:17;;;;;;;7.40;3.37;;;13.20;99.90;;;;;;5068488;28;20182;-62
2022/03/08 08:26:43;;;;;;;7.53;2.77;;;13.20;99.90;;;;;;5062620;28;20910;-64
2022/03/08 08:29:10;;;;;;;9.80;3.23;;;13.20;99.90;;;;;;5065939;28;20206;-64
2022/03/08 08:31:36;;;;;;;8.87;3.00;;;13.30;99.90;;;;;;5065833;28;20642;-65
2022/03/08 08:34:03;;;;;;;8.53;2.40;;;13.30;99.90;;;;;;5051072;28;20643;-63
2022/03/08 08:36:30;;;;;;;6.70;2.63;;;13.40;99.90;;;;;;5070675;28;20178;-62
2022/03/08 08:38:56;;;;;;;8.00;2.67;;;13.50;99.90;;;;;;5063194;28;20191;-64
2022/03/08 08:41:22;;;;;;;6.57;3.20;;;13.50;99.90;;;;;;5065476;28;20201;-64
2022/03/08 08:43:49;;;;;;;5.70;2.73;;;13.50;99.90;;;;;;5059181;28;20273;-62
2022/03/08 08:46:15;;;;;;;6.67;2.77;;;13.60;99.90;;;;;;5072115;28;20194;-62
2022/03/08 08:48:42;;;;;;;7.33;3.17;;;13.70;99.90;;;;;;5064998;28;20187;-62
2022/03/08 08:51:08;;;;;;;8.37;2.30;;;13.70;99.90;;;;;;5067814;28;20736;-63
2022/03/08 08:53:34;;;;;;;7.97;2.97;;;13.80;99.90;;;;;;5063432;28;20186;-62
2022/03/08 08:56:01;;;;;;;8.80;2.50;;;13.80;99.90;;;;;;5065197;28;20196;-66
2022/03/08 08:58:27;;;;;;;12.23;2.60;;;13.80;99.90;;;;;;5061079;28;20183;-64
2022/03/08 09:00:54;;;;;;;11.80;3.30;;;13.80;99.90;;;;;;5070569;28;20244;-62
2022/03/08 09:03:20;;;;;;;4.70;2.60;;;13.90;99.90;;;;;;5067758;28;20175;-64
2022/03/08 09:05:47;;;;;;;5.43;2.53;;;13.80;99.90;;;;;;5048494;28;20191;-65
2022/03/08 09:08:23;;;;;;;6.90;2.30;;;13.80;99.90;;;;;;5082146;28;20182;-64
2022/03/08 09:10:54;;;;;;;8.00;2.23;;;13.90;99.90;;;;;;5067754;28;20222;-66
2022/03/08 09:13:23;;;;;;;7.43;2.40;;;14.00;99.90;;;;;;5074211;28;20706;-66
2022/03/08 09:15:49;;;;;;;8.77;2.30;;;14.00;99.90;;;;;;5053874;28;20546;-62
2022/03/08 09:18:17;;;;;;;6.20;2.60;;;14.00;99.90;;;;;;5066520;28;20187;-61
2022/03/08 09:20:44;;;;;;;6.13;2.80;;;14.00;99.90;;;;;;5066117;28;20260;-63
2022/03/08 09:23:11;;;;;;;8.20;2.60;;;14.00;99.90;;;;;;5066835;28;20241;-63
2022/03/08 09:25:37;;;;;;;8.77;2.87;;;14.10;99.90;;;;;;5069779;28;20210;-63
2022/03/08 09:28:06;;;;;;;6.97;3.10;;;14.30;99.90;;;;;;5079351;28;20183;-63
2022/03/08 09:30:35;;;;;;;6.07;2.50;;;14.40;99.90;;;;;;5068598;28;20229;-63
2022/03/08 09:33:03;;;;;;;6.57;2.77;;;14.60;99.90;;;;;;5061148;28;20190;-63
2022/03/08 09:35:29;;;;;;;10.13;2.90;;;14.60;99.90;;;;;;5079864;28;20264;-62
2022/03/08 09:37:56;;;;;;;7.37;3.13;;;14.70;99.90;;;;;;5064456;28;20274;-63
2022/03/08 09:40:24;;;;;;;7.47;2.87;;;14.80;99.90;;;;;;5068243;28;20539;-62
2022/03/08 09:42:51;;;;;;;4.00;2.63;;;14.90;99.90;;;;;;5072219;28;20256;-63
2022/03/08 09:45:19;;;;;;;4.90;2.90;;;15.00;99.90;;;;;;5070375;28;20647;-64
2022/03/08 09:47:45;;;;;;;4.97;3.00;;;15.00;99.90;;;;;;5046105;28;20900;-63
2022/03/08 09:50:13;;;;;;;7.60;2.50;;;15.30;99.90;;;;;;5069686;28;20186;-64
2022/03/08 09:52:42;;;;;;;7.67;2.47;;;16.80;99.90;;;;;;5049914;28;20190;-65
2022/03/08 09:55:16;;;;;;;5.23;2.67;;;19.30;99.90;;;;;;5071087;28;20187;-66
2022/03/08 09:57:44;;;;;;;4.63;2.50;;;20.40;99.90;;;;;;5079020;28;20191;-65
2022/03/08 10:00:12;;;;;;;8.03;2.77;;;19.30;99.90;;;;;;5068258;28;20187;-66
2022/03/08 10:02:48;;;;;;;8.97;2.63;;;18.50;99.90;;;;;;5079083;28;20194;-66
2022/03/08 10:05:16;;;;;;;9.67;2.73;;;18.20;99.90;;;;;;5074365;28;20193;-65
2022/03/08 10:08:13;;;;;;;6.07;2.97;;;18.10;99.90;;;;;;5084659;28;20661;-65
2022/03/08 10:11:02;;;;;;;5.80;2.73;;;18.80;99.90;;;;;;5061062;28;20640;-64
2022/03/08 10:13:37;;;;;;;7.50;2.60;;;20.80;99.90;;;;;;5066223;28;21094;-64
2022/03/08 10:16:29;;;;;;;8.17;2.13;;;22.60;99.90;;;;;;5067692;28;20675;-64
2022/03/08 10:19:01;;;;;;;5.63;2.40;;;22.30;99.90;;;;;;5076575;28;20183;-62
2022/03/08 10:21:39;;;;;;;3.63;2.27;;;21.40;99.90;;;;;;5072671;28;20678;-64
2022/03/08 10:24:23;;;;;;;5.83;2.33;;;20.50;99.90;;;;;;5068160;28;20531;-63
2022/03/08 10:26:58;;;;;;;5.63;2.15;;;19.70;99.90;;;;;;5067999;28;20712;-62
2022/03/08 10:29:32;;;;;;;7.30;2.30;;;19.30;99.90;;;;;;5068571;28;20189;-62
2022/03/08 10:32:07;;;;;;;5.63;2.30;;;19.10;99.90;;;;;;5057308;28;20220;-63
2022/03/08 10:34:35;;;;;;;5.47;2.23;;;19.10;99.90;;;;;;5083623;28;20200;-65
2022/03/08 10:37:12;;;;;;;6.73;2.30;;;18.90;99.90;;;;;;5067074;28;20195;-62
2022/03/08 10:39:57;;;;;;;7.97;2.80;;;19.10;99.90;;;;;;5070646;28;20182;-63
2022/03/08 10:42:34;;;;;;;6.43;2.40;;;19.70;99.90;;;;;;5088135;28;20190;-64
2022/03/08 10:45:14;;;;;;;3.33;2.30;;;21.40;99.90;;;;;;5068949;28;20187;-62
2022/03/08 10:47:53;;;;;;;6.27;2.43;;;20.60;99.90;;;;;;5069441;28;20210;-66
2022/03/08 10:50:28;;;;;;;4.63;2.50;;;20.10;99.90;;;;;;5066239;28;20186;-64
2022/03/08 10:52:57;;;;;;;5.33;2.83;;;19.70;99.90;;;;;;5069255;28;20669;-63
2022/03/08 10:55:34;;;;;;;7.23;2.73;;;19.30;99.90;;;;;;5069926;28;20653;-63
2022/03/08 10:58:05;;;;;;;8.50;2.70;;;18.70;99.90;;;;;;5066776;28;20277;-64
2022/03/08 11:00:38;;;;;;;5.27;2.67;;;18.20;99.90;;;;;;5068095;28;20203;-62
2022/03/08 11:03:14;;;;;;;9.20;3.00;;;17.80;99.90;;;;;;5068133;28;20241;-62
2022/03/08 11:05:53;;;;;;;11.43;2.80;;;17.80;99.90;;;;;;5069604;28;20180;-65
2022/03/08 11:08:21;;;;;;;6.57;2.70;;;17.40;99.90;;;;;;5054178;28;20769;-64
2022/03/08 11:10:47;;;;;;;4.70;2.80;;;17.20;99.90;;;;;;5066596;28;20241;-63
2022/03/08 11:13:17;;;;;;;8.50;2.97;;;17.00;99.90;;;;;;5065967;28;20190;-67
2022/03/08 11:15:44;;;;;;;6.10;2.53;;;17.00;99.90;;;;;;5058528;28;20183;-65
2022/03/08 11:18:14;;;;;;;8.33;3.00;;;16.80;99.90;;;;;;5065750;28;20179;-64
2022/03/08 11:20:45;;;;;;;7.23;3.10;;;16.80;99.90;;;;;;5068370;28;20183;-64
2022/03/08 11:23:12;;;;;;;6.07;2.50;;;16.80;99.90;;;;;;5066795;28;20206;-67
2022/03/08 11:25:47;;;;;;;8.33;3.00;;;16.90;99.90;;;;;;5063062;28;20347;-66
2022/03/08 11:28:15;;;;;;;10.10;2.80;;;16.90;99.90;;;;;;5065763;28;20198;-63
2022/03/08 11:30:51;;;;;;;4.20;2.57;;;16.90;99.90;;;;;;5064459;28;20225;-64
2022/03/08 11:33:43;;;;;;;10.73;3.23;;;16.90;99.90;;;;;;5068545;28;20197;-63
2022/03/08 11:36:23;;;;;;;5.90;2.80;;;16.90;99.90;;;;;;5085899;28;20300;-63
2022/03/08 11:39:11;;;;;;;7.53;2.50;;;17.00;99.90;;;;;;5069160;28;20179;-63
2022/03/08 11:41:38;;;;;;;7.53;2.60;;;16.80;99.90;;;;;;5068152;28;20190;-63
2022/03/08 11:44:06;;;;;;;5.17;2.57;;;16.80;99.90;;;;;;5066787;28;20206;-63
2022/03/08 11:46:33;;;;;;;8.70;2.80;;;16.80;99.90;;;;;;5082875;28;20190;-65
2022/03/08 11:49:03;;;;;;;6.07;2.63;;;16.90;99.90;;;;;;5070840;28;20213;-66
2022/03/08 11:51:33;;;;;;;6.77;2.33;;;16.80;99.90;;;;;;5066384;28;20207;-63
2022/03/08 11:54:08;;;;;;;17.97;7.07;;;16.70;99.90;;;;;;5086746;28;20217;-65
2022/03/08 11:56:50;;;;;;;7.70;3.30;;;16.60;99.90;;;;;;5071996;28;20768;-64
2022/03/08 11:59:17;;;;;;;17.80;5.67;;;16.70;99.90;;;;;;5075446;28;20178;-66
2022/03/08 12:01:43;;;;;;;5.63;2.23;;;16.60;99.90;;;;;;5069698;28;20191;-66
2022/03/08 12:04:18;;;;;;;12.70;5.10;;;16.50;99.90;;;;;;5076540;28;20218;-65
2022/03/08 12:06:58;;;;;;;8.33;3.70;;;16.40;99.90;;;;;;5067459;28;20267;-65
2022/03/08 12:09:26;;;;;;;11.13;3.80;;;16.30;99.90;;;;;;5063163;28;20197;-64
2022/03/08 12:12:01;;;;;;;27.30;9.03;;;16.40;99.90;;;;;;5065338;28;20305;-65
2022/03/08 12:14:32;;;;;;;10.57;2.53;;;16.30;99.90;;;;;;5066116;28;20720;-66
2022/03/08 12:17:19;;;;;;;9.13;3.33;;;16.20;99.90;;;;;;5064444;28;20171;-64
2022/03/08 12:19:54;;;;;;;3.53;2.60;;;16.30;99.90;;;;;;5067532;28;20186;-64
2022/03/08 12:22:24;;;;;;;7.27;3.13;;;16.30;99.90;;;;;;5069697;28;20214;-64
2022/03/08 12:24:57;;;;;;;28.07;8.87;;;16.30;99.90;;;;;;5065602;28;20296;-64
2022/03/08 12:27:45;;;;;;;6.07;2.70;;;16.20;99.90;;;;;;5065361;28;20186;-66
2022/03/08 12:30:11;;;;;;;6.70;2.80;;;16.30;99.90;;;;;;5065297;28;20198;-63
2022/03/08 12:32:42;;;;;;;20.77;8.00;;;16.10;99.90;;;;;;5065553;28;20264;-65
2022/03/08 12:35:19;;;;;;;8.17;2.30;;;16.10;99.90;;;;;;5067584;28;20313;-66
2022/03/08 12:37:48;;;;;;;9.50;2.60;;;16.10;99.90;;;;;;5078667;28;20195;-65
2022/03/08 12:40:24;;;;;;;4.83;2.40;;;16.00;99.90;;;;;;5075539;28;20297;-66
2022/03/08 12:43:07;;;;;;;2.90;2.33;;;16.00;99.90;;;;;;5063751;28;20213;-64
2022/03/08 12:45:41;;;;;;;3.83;2.50;;;15.90;99.90;;;;;;5042303;28;20179;-64
2022/03/08 12:48:16;;;;;;;3.87;2.40;;;15.90;99.90;;;;;;5064508;28;20921;-65
2022/03/08 12:50:52;;;;;;;10.67;2.07;;;15.80;99.90;;;;;;5066623;28;20713;-64